createdAt,value
2023-01-27T00:00:27.609Z,59.03
2023-01-27T00:05:29.902Z,61.97
2023-01-27T00:10:32.286Z,51.87
2023-01-27T00:15:35.012Z,56.13
2023-01-27T00:20:56.110Z,55.27
2023-01-27T00:26:00.425Z,53.93
2023-01-27T00:31:03.796Z,50.07
2023-01-27T00:36:07.509Z,48.27
2023-01-27T00:41:15.518Z,51.67
2023-01-27T00:46:19.289Z,55.17
2023-01-27T00:51:22.084Z,50.30
2023-01-27T00:56:24.391Z,51.90
2023-01-27T01:01:27.832Z,51.57
2023-01-27T01:06:30.362Z,41.07
2023-01-27T01:11:32.681Z,43.83
2023-01-27T01:16:34.979Z,44.97
2023-01-27T01:21:40.113Z,37.30
2023-01-27T01:26:43.132Z,34.27
2023-01-27T01:31:45.544Z,31.83
2023-01-27T01:36:47.853Z,32.77
2023-01-27T01:41:50.190Z,31.27
2023-01-27T01:46:52.924Z,31.10
2023-01-27T01:51:59.947Z,34.57
2023-01-27T01:57:10.313Z,40.03
2023-01-27T02:02:16.502Z,37.53
2023-01-27T02:07:29.403Z,37.60
2023-01-27T02:12:31.707Z,33.40
2023-01-27T02:17:35.409Z,35.63
2023-01-27T02:22:58.739Z,36.00
2023-01-27T02:28:06.855Z,32.43
2023-01-27T02:33:12.560Z,34.27
2023-01-27T02:38:17.375Z,31.60
2023-01-27T02:43:19.804Z,32.40
2023-01-27T02:48:22.389Z,32.47
2023-01-27T02:53:24.898Z,31.17
2023-01-27T02:58:27.368Z,37.03
2023-01-27T03:03:44.008Z,36.07
2023-01-27T03:08:46.654Z,38.53
2023-01-27T03:13:51.077Z,37.17
2023-01-27T03:18:56.594Z,30.50
2023-01-27T03:23:59.101Z,36.47
2023-01-27T03:29:20.428Z,38.27
2023-01-27T03:34:22.946Z,36.97
2023-01-27T03:39:49.430Z,42.70
2023-01-27T03:45:10.654Z,52.37
2023-01-27T03:50:19.192Z,44.57
2023-01-27T03:55:21.583Z,35.43
2023-01-27T04:00:24.120Z,35.77
2023-01-27T04:05:45.638Z,44.13
2023-01-27T04:11:07.943Z,35.47
2023-01-27T04:16:10.385Z,35.07
2023-01-27T04:21:13.977Z,43.27
2023-01-27T04:26:16.281Z,40.43
2023-01-27T04:31:18.715Z,44.33
2023-01-27T04:36:21.480Z,45.00
2023-01-27T04:41:23.781Z,45.80
2023-01-27T04:46:26.194Z,48.40
2023-01-27T04:51:28.894Z,48.77
2023-01-27T04:56:44.400Z,42.23
2023-01-27T05:01:46.747Z,48.63
2023-01-27T05:06:49.789Z,40.97
2023-01-27T05:11:52.116Z,43.80
2023-01-27T05:16:54.566Z,44.50
2023-01-27T05:21:57.018Z,41.93
2023-01-27T05:26:59.419Z,39.07
2023-01-27T05:32:01.768Z,48.03
2023-01-27T05:37:04.314Z,39.30
2023-01-27T05:42:06.607Z,38.60
2023-01-27T05:47:08.959Z,38.43
2023-01-27T05:52:11.273Z,35.97
2023-01-27T05:57:13.637Z,36.33
2023-01-27T06:02:15.987Z,32.63
2023-01-27T06:07:18.900Z,36.57
2023-01-27T06:12:21.158Z,41.10
2023-01-27T06:17:24.768Z,37.60
2023-01-27T06:22:27.253Z,36.53
2023-01-27T06:27:29.631Z,39.60
2023-01-27T06:32:31.955Z,34.10
2023-01-27T06:37:34.356Z,39.53
2023-01-27T06:42:36.707Z,38.23
2023-01-27T06:47:40.217Z,32.60
2023-01-27T06:52:42.570Z,35.00
2023-01-27T06:57:47.826Z,32.17
2023-01-27T07:02:50.903Z,32.57
2023-01-27T07:07:53.749Z,30.20
2023-01-27T07:13:09.166Z,33.23
2023-01-27T07:18:13.732Z,29.07
2023-01-27T07:23:16.085Z,29.13
2023-01-27T07:28:18.371Z,25.07
2023-01-27T07:33:20.823Z,24.70
2023-01-27T07:38:23.136Z,30.20
2023-01-27T07:43:26.224Z,30.10
2023-01-27T07:48:29.119Z,27.40
2023-01-27T07:53:31.603Z,27.90
2023-01-27T07:58:33.902Z,27.70
2023-01-27T08:03:37.037Z,32.40
2023-01-27T08:08:39.493Z,31.60
2023-01-27T08:13:42.338Z,30.70
2023-01-27T08:18:44.721Z,30.77
2023-01-27T08:23:47.066Z,32.93
2023-01-27T08:28:49.356Z,31.60
2023-01-27T08:33:53.828Z,36.17
2023-01-27T08:38:56.532Z,30.90
2023-01-27T08:43:58.852Z,29.17
2023-01-27T08:49:01.225Z,31.60
2023-01-27T08:54:04.206Z,27.63
2023-01-27T08:59:06.786Z,29.23
2023-01-27T09:04:09.575Z,24.53
2023-01-27T09:09:12.571Z,27.53
2023-01-27T09:14:15.026Z,31.40
2023-01-27T09:19:17.297Z,25.07
2023-01-27T09:24:20.568Z,22.03
2023-01-27T09:29:22.966Z,21.70
2023-01-27T09:34:25.345Z,25.87
2023-01-27T09:39:29.107Z,28.77
2023-01-27T09:44:57.731Z,31.63
2023-01-27T09:50:29.115Z,27.57
2023-01-27T09:55:50.808Z,25.57
2023-01-27T10:01:18.538Z,45.47
2023-01-27T10:06:48.893Z,25.63
2023-01-27T10:12:15.952Z,24.83
2023-01-27T10:17:41.564Z,29.63
2023-01-27T10:22:57.779Z,21.93
2023-01-27T10:28:09.360Z,24.47
2023-01-27T10:33:20.865Z,26.13
2023-01-27T10:38:35.244Z,32.50
2023-01-27T10:43:44.144Z,34.00
2023-01-27T10:48:52.421Z,35.00
2023-01-27T10:54:08.115Z,33.53
2023-01-27T10:59:29.140Z,29.17
2023-01-27T11:04:45.985Z,27.53
2023-01-27T11:09:58.113Z,25.87
2023-01-27T11:15:02.704Z,29.87
2023-01-27T11:20:23.953Z,31.03
2023-01-27T11:25:43.072Z,33.77
2023-01-27T11:30:57.427Z,35.67
2023-01-27T11:35:59.812Z,38.10
2023-01-27T11:41:02.271Z,35.40
2023-01-27T11:46:10.098Z,35.83
2023-01-27T11:51:24.885Z,32.17
2023-01-27T11:56:28.538Z,31.07
2023-01-27T12:01:44.976Z,30.13
2023-01-27T12:06:49.280Z,34.27
2023-01-27T12:12:11.410Z,34.37
2023-01-27T12:17:25.027Z,34.10
2023-01-27T12:22:32.595Z,36.57
2023-01-27T12:27:54.269Z,37.70
2023-01-27T12:32:59.394Z,41.80
2023-01-27T12:38:12.951Z,37.23
2023-01-27T12:43:17.607Z,32.57
2023-01-27T12:48:21.115Z,32.23
2023-01-27T12:53:27.685Z,37.73
2023-01-27T12:58:43.427Z,37.27
2023-01-27T13:03:49.348Z,35.90
2023-01-27T13:08:53.397Z,30.03
2023-01-27T13:13:58.098Z,34.70
2023-01-27T13:19:01.149Z,27.60
2023-01-27T13:24:19.526Z,27.93
2023-01-27T13:29:27.011Z,27.70
2023-01-27T13:34:41.145Z,32.40
2023-01-27T13:39:59.403Z,57.27
2023-01-27T13:45:24.245Z,26.87
2023-01-27T13:50:39.885Z,27.73
2023-01-27T13:55:46.661Z,27.43
2023-01-27T14:01:11.217Z,28.03
2023-01-27T14:06:35.015Z,28.67
2023-01-27T14:12:00.318Z,29.20
2023-01-27T14:17:33.387Z,29.90
2023-01-27T14:22:44.596Z,33.53
2023-01-27T14:28:00.304Z,37.70
2023-01-27T14:33:24.491Z,34.83
2023-01-27T14:38:33.905Z,41.53
2023-01-27T14:43:50.218Z,42.93
2023-01-27T14:49:07.489Z,48.38
2023-01-27T14:54:50.825Z,39.50
2023-01-27T15:00:01.342Z,40.77
2023-01-27T15:05:12.603Z,44.23
2023-01-27T15:10:21.072Z,40.57
2023-01-27T15:15:43.423Z,40.73
2023-01-27T15:21:07.420Z,37.90
2023-01-27T15:26:10.955Z,38.03
2023-01-27T15:31:16.997Z,38.37
2023-01-27T15:36:28.091Z,41.80
2023-01-27T15:41:30.500Z,41.57
2023-01-27T15:46:37.726Z,39.00
2023-01-27T15:51:40.323Z,39.60
2023-01-27T15:56:44.308Z,38.97
2023-01-27T16:01:48.777Z,35.50
2023-01-27T16:07:15.961Z,34.27
2023-01-27T16:12:24.430Z,29.20
2023-01-27T16:17:31.121Z,29.83
2023-01-27T16:22:38.745Z,26.80
2023-01-27T16:28:03.885Z,27.10
2023-01-27T16:33:22.259Z,26.73
2023-01-27T16:38:34.081Z,26.03
2023-01-27T16:43:52.560Z,27.03
2023-01-27T16:48:54.959Z,25.67
2023-01-27T16:53:59.885Z,24.97
2023-01-27T16:59:06.546Z,22.13
2023-01-27T17:04:20.061Z,19.17
2023-01-27T17:09:25.760Z,18.73
2023-01-27T17:14:35.325Z,21.60
2023-01-27T17:19:37.751Z,21.13
2023-01-27T17:24:50.049Z,22.20
2023-01-27T17:29:55.837Z,20.13
2023-01-27T17:35:00.412Z,18.07
2023-01-27T17:40:03.727Z,18.10
2023-01-27T17:45:27.338Z,17.07
2023-01-27T17:50:36.289Z,13.33
2023-01-27T17:55:39.434Z,16.97
2023-01-27T18:00:44.083Z,12.40
2023-01-27T18:05:48.891Z,13.63
2023-01-27T18:10:51.795Z,11.57
2023-01-27T18:16:01.022Z,12.73
2023-01-27T18:21:04.480Z,9.77
2023-01-27T18:26:32.820Z,11.67
2023-01-27T18:31:44.251Z,9.07
2023-01-27T18:37:06.166Z,12.90
2023-01-27T18:42:15.358Z,7.10
2023-01-27T18:47:17.602Z,17.57
2023-01-27T18:52:19.984Z,10.33
2023-01-27T18:57:22.407Z,9.60
2023-01-27T19:02:25.659Z,11.07
2023-01-27T19:07:28.101Z,11.67
2023-01-27T19:12:30.394Z,17.00
2023-01-27T19:17:32.764Z,11.83
2023-01-27T19:22:35.133Z,7.63
2023-01-27T19:27:41.511Z,8.80
2023-01-27T19:32:43.791Z,9.60
2023-01-27T19:37:46.702Z,8.03
2023-01-27T19:42:49.190Z,10.90
2023-01-27T19:47:52.916Z,6.50
2023-01-27T19:52:55.647Z,8.50
2023-01-27T19:57:58.009Z,8.87
2023-01-27T20:03:01.834Z,8.70
2023-01-27T20:08:04.337Z,8.10
2023-01-27T20:13:07.580Z,8.53
2023-01-27T20:18:14.497Z,5.53
2023-01-27T20:23:17.488Z,6.80
2023-01-27T20:28:20.251Z,7.53
2023-01-27T20:33:22.551Z,4.27
2023-01-27T20:38:25.343Z,9.90
2023-01-27T20:43:35.309Z,8.47
2023-01-27T20:48:38.116Z,5.87
2023-01-27T20:53:45.234Z,5.27
2023-01-27T20:58:48.350Z,11.20
2023-01-27T21:03:50.895Z,6.70
2023-01-27T21:08:53.254Z,5.10
2023-01-27T21:13:55.551Z,5.93
2023-01-27T21:18:57.850Z,5.97
2023-01-27T21:24:00.449Z,6.20
2023-01-27T21:29:03.786Z,6.17
2023-01-27T21:34:06.356Z,5.57
2023-01-27T21:39:08.864Z,5.10
2023-01-27T21:44:35.187Z,6.40
2023-01-27T21:49:59.087Z,4.50
2023-01-27T21:55:02.718Z,6.27
2023-01-27T22:00:06.640Z,5.87
2023-01-27T22:05:15.417Z,4.33
2023-01-27T22:10:20.757Z,5.87
2023-01-27T22:15:23.060Z,4.73
2023-01-27T22:20:26.077Z,5.13
2023-01-27T22:25:28.440Z,4.30
2023-01-27T22:30:33.120Z,4.30
2023-01-27T22:35:35.844Z,3.87
2023-01-27T22:40:38.331Z,4.47
2023-01-27T22:45:40.747Z,2.90
2023-01-27T22:50:43.151Z,4.03
2023-01-27T22:55:45.423Z,5.17
2023-01-27T23:00:47.719Z,4.17
2023-01-27T23:05:50.455Z,4.63
2023-01-27T23:10:52.769Z,4.03
2023-01-27T23:15:55.107Z,2.63
2023-01-27T23:21:06.823Z,5.20
2023-01-27T23:26:09.889Z,3.23
2023-01-27T23:31:13.939Z,3.83
2023-01-27T23:36:19.178Z,2.87
2023-01-27T23:41:21.844Z,2.63
2023-01-27T23:46:25.449Z,2.70
2023-01-27T23:51:27.753Z,3.73
2023-01-27T23:56:30.082Z,4.77
